createdAt,value
2018-06-25T00:00:03.712Z,296
2018-06-25T00:00:16.184Z,313
2018-06-25T00:00:28.627Z,312
2018-06-25T00:00:41.077Z,313
2018-06-25T00:00:53.704Z,296
2018-06-25T00:01:06.117Z,280
2018-06-25T00:01:18.779Z,279
2018-06-25T00:01:31.223Z,305
2018-06-25T00:01:43.667Z,286
2018-06-25T00:01:56.089Z,294
2018-06-25T00:02:08.528Z,321
2018-06-25T00:02:20.993Z,304
2018-06-25T00:02:33.406Z,304
2018-06-25T00:02:45.838Z,300
2018-06-25T00:02:58.248Z,294
2018-06-25T00:03:10.651Z,316
2018-06-25T00:03:23.068Z,306
2018-06-25T00:03:35.478Z,304
2018-06-25T00:03:47.893Z,317
2018-06-25T00:04:00.284Z,307
2018-06-25T00:04:12.691Z,307
2018-06-25T00:04:25.096Z,309
2018-06-25T00:04:37.510Z,310
2018-06-25T00:04:49.909Z,325
2018-06-25T00:05:02.311Z,319
2018-06-25T00:05:14.747Z,321
2018-06-25T00:05:27.167Z,315
2018-06-25T00:05:39.627Z,328
2018-06-25T00:05:52.024Z,305
2018-06-25T00:06:04.433Z,296
2018-06-25T00:06:16.843Z,285
2018-06-25T00:06:29.272Z,298
2018-06-25T00:06:41.691Z,315
2018-06-25T00:06:54.091Z,294
2018-06-25T00:07:06.484Z,294
2018-06-25T00:07:18.883Z,260
2018-06-25T00:07:31.349Z,284
2018-06-25T00:07:43.771Z,288
2018-06-25T00:07:56.317Z,318
2018-06-25T00:08:08.716Z,319
2018-06-25T00:08:21.131Z,320
2018-06-25T00:08:33.546Z,302
2018-06-25T00:08:45.940Z,302
2018-06-25T00:08:58.342Z,297
2018-06-25T00:09:10.763Z,296
2018-06-25T00:09:23.250Z,304
2018-06-25T00:09:35.711Z,296
2018-06-25T00:09:48.176Z,285
2018-06-25T00:10:00.599Z,282
2018-06-25T00:10:13.042Z,275
2018-06-25T00:10:25.449Z,275
2018-06-25T00:10:37.841Z,277
2018-06-25T00:10:50.234Z,284
2018-06-25T00:11:02.640Z,295
2018-06-25T00:11:15.049Z,325
2018-06-25T00:11:27.488Z,298
2018-06-25T00:11:39.888Z,296
2018-06-25T00:11:52.328Z,296
2018-06-25T00:12:04.727Z,297
2018-06-25T00:12:17.200Z,295
2018-06-25T00:12:29.588Z,290
2018-06-25T00:12:41.992Z,284
2018-06-25T00:12:54.401Z,300
2018-06-25T00:13:06.814Z,296
2018-06-25T00:13:19.217Z,296
2018-06-25T00:13:31.618Z,298
2018-06-25T00:13:44.057Z,288
2018-06-25T00:13:56.442Z,313
2018-06-25T00:14:08.848Z,290
2018-06-25T00:14:21.244Z,290
2018-06-25T00:14:33.666Z,301
2018-06-25T00:14:46.083Z,301
2018-06-25T00:14:58.473Z,300
2018-06-25T00:15:10.886Z,300
2018-06-25T00:15:23.276Z,300
2018-06-25T00:15:35.685Z,300
2018-06-25T00:15:48.098Z,300
2018-06-25T00:16:00.517Z,300
2018-06-25T00:16:12.937Z,300
2018-06-25T00:16:25.335Z,300
2018-06-25T00:16:37.719Z,300
2018-06-25T00:16:50.133Z,300
2018-06-25T00:17:02.530Z,300
2018-06-25T00:17:14.942Z,300
2018-06-25T00:17:27.469Z,300
2018-06-25T00:17:39.936Z,300
2018-06-25T00:17:52.344Z,300
2018-06-25T00:18:04.753Z,300
2018-06-25T00:18:17.162Z,300
2018-06-25T00:18:29.569Z,300
2018-06-25T00:18:41.974Z,305
2018-06-25T00:18:54.384Z,314
2018-06-25T00:19:06.821Z,307
2018-06-25T00:19:19.215Z,307
2018-06-25T00:19:31.641Z,307
2018-06-25T00:19:44.053Z,307
2018-06-25T00:19:56.524Z,307
2018-06-25T00:20:08.965Z,307
2018-06-25T00:20:21.365Z,315
2018-06-25T00:20:33.949Z,315
2018-06-25T00:20:46.357Z,315
2018-06-25T00:20:58.756Z,300
2018-06-25T00:21:11.178Z,300
2018-06-25T00:21:23.617Z,300
2018-06-25T00:21:36.004Z,300
2018-06-25T00:21:48.404Z,298
2018-06-25T00:22:00.797Z,298
2018-06-25T00:22:13.196Z,300
2018-06-25T00:22:25.590Z,300
2018-06-25T00:22:38.010Z,300
2018-06-25T00:22:50.425Z,300
2018-06-25T00:23:02.829Z,300
2018-06-25T00:23:15.232Z,300
2018-06-25T00:23:27.643Z,300
2018-06-25T00:23:40.047Z,300
2018-06-25T00:23:52.461Z,300
2018-06-25T00:24:04.875Z,300
2018-06-25T00:24:17.270Z,300
2018-06-25T00:24:29.664Z,307
2018-06-25T00:24:42.106Z,307
2018-06-25T00:24:54.510Z,339
2018-06-25T00:25:06.938Z,331
2018-06-25T00:25:19.360Z,320
2018-06-25T00:25:31.789Z,323
2018-06-25T00:25:44.389Z,323
2018-06-25T00:25:56.796Z,322
2018-06-25T00:26:09.204Z,322
2018-06-25T00:26:21.613Z,292
2018-06-25T00:26:34.022Z,317
2018-06-25T00:26:46.573Z,313
2018-06-25T00:26:58.975Z,311
2018-06-25T00:27:11.400Z,307
2018-06-25T00:27:23.813Z,307
2018-06-25T00:27:36.213Z,314
2018-06-25T00:27:48.671Z,310
2018-06-25T00:28:01.064Z,310
2018-06-25T00:28:13.479Z,294
2018-06-25T00:28:25.909Z,314
2018-06-25T00:28:38.316Z,314
2018-06-25T00:28:50.722Z,314
2018-06-25T00:29:03.112Z,319
2018-06-25T00:29:15.569Z,321
2018-06-25T00:29:27.976Z,318
2018-06-25T00:29:40.388Z,318
2018-06-25T00:29:52.817Z,318
2018-06-25T00:30:05.238Z,318
2018-06-25T00:30:17.653Z,318
2018-06-25T00:30:30.062Z,319
2018-06-25T00:30:42.478Z,319
2018-06-25T00:30:54.909Z,319
2018-06-25T00:31:07.322Z,313
2018-06-25T00:31:19.781Z,312
2018-06-25T00:31:32.205Z,312
2018-06-25T00:31:44.655Z,312
2018-06-25T00:31:57.053Z,320
2018-06-25T00:32:09.465Z,321
2018-06-25T00:32:21.881Z,319
2018-06-25T00:32:34.276Z,301
2018-06-25T00:32:46.674Z,304
2018-06-25T00:32:59.386Z,311
2018-06-25T00:33:11.806Z,307
2018-06-25T00:33:24.215Z,306
2018-06-25T00:33:36.628Z,294
2018-06-25T00:33:49.048Z,294
2018-06-25T00:34:01.432Z,312
2018-06-25T00:34:13.843Z,312
2018-06-25T00:34:26.241Z,306
2018-06-25T00:34:38.653Z,303
2018-06-25T00:34:51.063Z,299
2018-06-25T00:35:03.511Z,297
2018-06-25T00:35:15.968Z,306
2018-06-25T00:35:28.365Z,304
2018-06-25T00:35:40.766Z,331
2018-06-25T00:35:53.178Z,314
2018-06-25T00:36:05.583Z,308
2018-06-25T00:36:17.980Z,308
2018-06-25T00:36:30.377Z,308
2018-06-25T00:36:42.786Z,308
2018-06-25T00:36:55.225Z,308
2018-06-25T00:37:07.615Z,308
2018-06-25T00:37:20.023Z,308
2018-06-25T00:37:32.454Z,307
2018-06-25T00:37:44.868Z,315
2018-06-25T00:37:57.251Z,301
2018-06-25T00:38:09.651Z,297
2018-06-25T00:38:22.074Z,304
2018-06-25T00:38:34.480Z,306
2018-06-25T00:38:46.898Z,298
2018-06-25T00:38:59.310Z,296
2018-06-25T00:39:11.735Z,295
2018-06-25T00:39:24.138Z,322
2018-06-25T00:39:36.544Z,294
2018-06-25T00:39:48.950Z,294
2018-06-25T00:40:01.359Z,304
2018-06-25T00:40:13.787Z,304
2018-06-25T00:40:26.182Z,296
2018-06-25T00:40:38.597Z,300
2018-06-25T00:40:51.003Z,291
2018-06-25T00:41:03.416Z,303
2018-06-25T00:41:15.813Z,290
2018-06-25T00:41:28.206Z,269
2018-06-25T00:41:40.618Z,295
2018-06-25T00:41:53.040Z,297
2018-06-25T00:42:05.516Z,305
2018-06-25T00:42:17.946Z,303
2018-06-25T00:42:30.353Z,290
2018-06-25T00:42:42.833Z,302
2018-06-25T00:42:55.220Z,305
2018-06-25T00:43:07.646Z,296
2018-06-25T00:43:20.047Z,306
2018-06-25T00:43:32.443Z,300
2018-06-25T00:43:44.847Z,302
2018-06-25T00:43:57.254Z,318
2018-06-25T00:44:09.661Z,313
2018-06-25T00:44:22.059Z,311
2018-06-25T00:44:34.612Z,304
2018-06-25T00:44:46.996Z,302
2018-06-25T00:44:59.399Z,302
2018-06-25T00:45:11.839Z,310
2018-06-25T00:45:24.242Z,300
2018-06-25T00:45:36.650Z,301
2018-06-25T00:45:49.183Z,306
2018-06-25T00:46:01.608Z,294
2018-06-25T00:46:14.044Z,281
2018-06-25T00:46:26.443Z,283
2018-06-25T00:46:38.845Z,294
2018-06-25T00:46:51.254Z,309
2018-06-25T00:47:03.664Z,296
2018-06-25T00:47:16.081Z,298
2018-06-25T00:47:28.500Z,295
2018-06-25T00:47:41.060Z,295
2018-06-25T00:47:53.474Z,295
2018-06-25T00:48:05.876Z,295
2018-06-25T00:48:18.298Z,295
2018-06-25T00:48:30.698Z,311
2018-06-25T00:48:43.206Z,302
2018-06-25T00:48:55.603Z,302
2018-06-25T00:49:08.003Z,302
2018-06-25T00:49:20.406Z,302
2018-06-25T00:49:32.806Z,302
2018-06-25T00:49:45.204Z,307
2018-06-25T00:49:57.609Z,307
2018-06-25T00:50:10.416Z,307
2018-06-25T00:50:22.817Z,292
2018-06-25T00:50:35.216Z,292
2018-06-25T00:50:47.650Z,292
2018-06-25T00:51:00.055Z,292
2018-06-25T00:51:12.482Z,292
2018-06-25T00:51:24.883Z,292
2018-06-25T00:51:37.276Z,292
2018-06-25T00:51:49.671Z,294
2018-06-25T00:52:02.095Z,294
2018-06-25T00:52:14.509Z,294
2018-06-25T00:52:26.902Z,294
2018-06-25T00:52:39.301Z,294
2018-06-25T00:52:51.699Z,294
2018-06-25T00:53:04.103Z,294
2018-06-25T00:53:16.509Z,294
2018-06-25T00:53:28.936Z,294
2018-06-25T00:53:41.384Z,294
2018-06-25T00:53:53.795Z,294
2018-06-25T00:54:06.200Z,294
2018-06-25T00:54:18.600Z,294
2018-06-25T00:54:30.989Z,294
2018-06-25T00:54:43.403Z,294
2018-06-25T00:54:55.825Z,294
2018-06-25T00:55:08.236Z,294
2018-06-25T00:55:20.708Z,294
2018-06-25T00:55:33.108Z,294
2018-06-25T00:55:45.507Z,294
2018-06-25T00:55:57.908Z,294
2018-06-25T00:56:10.323Z,294
2018-06-25T00:56:22.715Z,294
2018-06-25T00:56:35.130Z,294
2018-06-25T00:56:47.559Z,294
2018-06-25T00:56:59.963Z,294
2018-06-25T00:57:12.418Z,294
2018-06-25T00:57:24.829Z,294
2018-06-25T00:57:37.236Z,294
2018-06-25T00:57:49.624Z,294
2018-06-25T00:58:02.041Z,294
2018-06-25T00:58:14.470Z,294
2018-06-25T00:58:26.872Z,294
2018-06-25T00:58:39.283Z,294
2018-06-25T00:58:51.696Z,292
2018-06-25T00:59:04.105Z,284
2018-06-25T00:59:16.525Z,290
2018-06-25T00:59:28.930Z,290
2018-06-25T00:59:41.318Z,290
2018-06-25T00:59:53.714Z,290
2018-06-25T01:00:06.130Z,290
2018-06-25T01:00:18.592Z,290
2018-06-25T01:00:31.045Z,290
2018-06-25T01:00:43.491Z,290
2018-06-25T01:00:56.055Z,290
2018-06-25T01:01:08.457Z,290
2018-06-25T01:01:20.987Z,290
2018-06-25T01:01:33.416Z,322
2018-06-25T01:01:45.826Z,261
2018-06-25T01:01:58.235Z,261
2018-06-25T01:02:10.632Z,261
2018-06-25T01:02:23.050Z,262
2018-06-25T01:02:35.464Z,289
2018-06-25T01:02:47.923Z,336
2018-06-25T01:03:00.375Z,318
2018-06-25T01:03:12.789Z,319
2018-06-25T01:03:25.177Z,296
2018-06-25T01:03:37.610Z,296
2018-06-25T01:03:50.021Z,313
2018-06-25T01:04:02.493Z,313
2018-06-25T01:04:14.902Z,312
2018-06-25T01:04:27.294Z,302
2018-06-25T01:04:39.695Z,336
2018-06-25T01:04:52.105Z,336
2018-06-25T01:05:04.556Z,300
2018-06-25T01:05:16.947Z,313
2018-06-25T01:05:29.399Z,300
2018-06-25T01:05:41.783Z,300
2018-06-25T01:05:54.302Z,300
2018-06-25T01:06:07.495Z,306
2018-06-25T01:06:20.069Z,298
2018-06-25T01:06:32.461Z,299
2018-06-25T01:06:44.886Z,280
2018-06-25T01:06:57.292Z,296
2018-06-25T01:07:09.712Z,301
2018-06-25T01:07:22.179Z,302
2018-06-25T01:07:34.592Z,298
2018-06-25T01:07:47.134Z,303
2018-06-25T01:07:59.558Z,303
2018-06-25T01:08:11.967Z,303
2018-06-25T01:08:24.362Z,306
2018-06-25T01:08:36.765Z,306
2018-06-25T01:08:49.184Z,306
2018-06-25T01:09:01.603Z,306
2018-06-25T01:09:14.012Z,304
2018-06-25T01:09:26.431Z,304
2018-06-25T01:09:38.850Z,304
2018-06-25T01:09:51.262Z,304
2018-06-25T01:10:03.671Z,305
2018-06-25T01:10:16.092Z,305
2018-06-25T01:10:28.493Z,305
2018-06-25T01:10:40.885Z,305
2018-06-25T01:10:53.314Z,305
2018-06-25T01:11:05.735Z,305
2018-06-25T01:11:18.206Z,311
2018-06-25T01:11:30.618Z,311
2018-06-25T01:11:43.018Z,311
2018-06-25T01:11:55.421Z,311
2018-06-25T01:12:07.833Z,311
2018-06-25T01:12:20.227Z,311
2018-06-25T01:12:32.622Z,311
2018-06-25T01:12:45.011Z,311
2018-06-25T01:12:57.449Z,311
2018-06-25T01:13:09.867Z,296
2018-06-25T01:13:22.266Z,296
2018-06-25T01:13:34.669Z,296
2018-06-25T01:13:47.067Z,296
2018-06-25T01:13:59.453Z,296
2018-06-25T01:14:11.857Z,296
2018-06-25T01:14:24.257Z,296
2018-06-25T01:14:36.656Z,296
2018-06-25T01:14:49.062Z,296
2018-06-25T01:15:01.502Z,296
2018-06-25T01:15:13.979Z,296
2018-06-25T01:15:26.427Z,296
2018-06-25T01:15:38.843Z,296
2018-06-25T01:15:51.240Z,296
2018-06-25T01:16:03.693Z,296
2018-06-25T01:16:16.102Z,296
2018-06-25T01:16:28.506Z,296
2018-06-25T01:16:40.909Z,296
2018-06-25T01:16:53.316Z,296
2018-06-25T01:17:05.734Z,296
2018-06-25T01:17:18.214Z,296
2018-06-25T01:17:30.612Z,290
2018-06-25T01:17:43.016Z,290
2018-06-25T01:17:55.437Z,291
2018-06-25T01:18:07.860Z,284
2018-06-25T01:18:20.258Z,298
2018-06-25T01:18:32.702Z,298
2018-06-25T01:18:45.106Z,298
2018-06-25T01:18:57.512Z,298
2018-06-25T01:19:09.984Z,298
2018-06-25T01:19:22.401Z,298
2018-06-25T01:19:34.856Z,298
2018-06-25T01:19:47.262Z,298
2018-06-25T01:19:59.664Z,298
2018-06-25T01:20:12.079Z,298
2018-06-25T01:20:24.599Z,298
2018-06-25T01:20:37.139Z,298
2018-06-25T01:20:49.555Z,298
2018-06-25T01:21:01.960Z,298
2018-06-25T01:21:14.352Z,298
2018-06-25T01:21:26.761Z,298
2018-06-25T01:21:39.181Z,298
2018-06-25T01:21:51.601Z,279
2018-06-25T01:22:04.007Z,282
2018-06-25T01:22:16.438Z,282
2018-06-25T01:22:28.902Z,282
2018-06-25T01:22:41.306Z,282
2018-06-25T01:22:53.762Z,282
2018-06-25T01:23:06.157Z,282
2018-06-25T01:23:18.552Z,282
2018-06-25T01:23:30.953Z,282
2018-06-25T01:23:43.370Z,282
2018-06-25T01:23:55.774Z,282
2018-06-25T01:24:08.188Z,283
2018-06-25T01:24:20.586Z,283
2018-06-25T01:24:33.031Z,283
2018-06-25T01:24:45.443Z,283
2018-06-25T01:24:57.852Z,283
2018-06-25T01:25:10.253Z,283
2018-06-25T01:25:22.763Z,283
2018-06-25T01:25:35.172Z,283
2018-06-25T01:25:47.585Z,283
2018-06-25T01:25:59.972Z,315
2018-06-25T01:26:12.388Z,315
2018-06-25T01:26:24.768Z,315
2018-06-25T01:26:37.173Z,315
2018-06-25T01:26:49.729Z,315
2018-06-25T01:27:02.152Z,315
2018-06-25T01:27:14.580Z,311
2018-06-25T01:27:27.001Z,311
2018-06-25T01:27:39.409Z,311
2018-06-25T01:27:51.820Z,311
2018-06-25T01:28:04.222Z,311
2018-06-25T01:28:16.622Z,311
2018-06-25T01:28:29.011Z,311
2018-06-25T01:28:41.411Z,321
2018-06-25T01:28:53.815Z,285
2018-06-25T01:29:06.218Z,273
2018-06-25T01:29:18.645Z,284
2018-06-25T01:29:31.047Z,288
2018-06-25T01:29:43.496Z,306
2018-06-25T01:29:55.905Z,313
2018-06-25T01:30:08.321Z,296
2018-06-25T01:30:20.732Z,305
2018-06-25T01:30:33.152Z,315
2018-06-25T01:30:45.563Z,312
2018-06-25T01:30:57.947Z,314
2018-06-25T01:31:10.354Z,314
2018-06-25T01:31:22.752Z,313
2018-06-25T01:31:35.181Z,313
2018-06-25T01:31:47.594Z,314
2018-06-25T01:32:00.003Z,313
2018-06-25T01:32:12.429Z,313
2018-06-25T01:32:24.871Z,313
2018-06-25T01:32:37.265Z,313
2018-06-25T01:32:49.707Z,313
2018-06-25T01:33:02.249Z,269
2018-06-25T01:33:14.653Z,309
2018-06-25T01:33:27.095Z,322
2018-06-25T01:33:39.491Z,325
2018-06-25T01:33:51.882Z,313
2018-06-25T01:34:04.300Z,331
2018-06-25T01:34:16.695Z,300
2018-06-25T01:34:29.113Z,300
2018-06-25T01:34:41.519Z,300
2018-06-25T01:34:53.980Z,300
2018-06-25T01:35:06.383Z,300
2018-06-25T01:35:18.803Z,300
2018-06-25T01:35:31.202Z,300
2018-06-25T01:35:43.594Z,300
2018-06-25T01:35:55.987Z,300
2018-06-25T01:36:08.405Z,300
2018-06-25T01:36:20.815Z,300
2018-06-25T01:36:33.218Z,300
2018-06-25T01:36:45.612Z,300
2018-06-25T01:36:58.029Z,300
2018-06-25T01:37:10.471Z,300
2018-06-25T01:37:22.879Z,300
2018-06-25T01:37:35.286Z,300
2018-06-25T01:37:47.685Z,300
2018-06-25T01:38:00.121Z,314
2018-06-25T01:38:12.545Z,295
2018-06-25T01:38:24.953Z,305
2018-06-25T01:38:37.369Z,306
2018-06-25T01:38:49.771Z,306
2018-06-25T01:39:02.162Z,306
2018-06-25T01:39:14.559Z,306
2018-06-25T01:39:26.963Z,306
2018-06-25T01:39:39.362Z,306
2018-06-25T01:39:51.763Z,306
2018-06-25T01:40:04.170Z,295
2018-06-25T01:40:16.579Z,295
2018-06-25T01:40:29.012Z,295
2018-06-25T01:40:41.432Z,295
2018-06-25T01:40:53.853Z,295
2018-06-25T01:41:06.247Z,295
2018-06-25T01:41:18.658Z,296
2018-06-25T01:41:31.060Z,297
2018-06-25T01:41:43.518Z,279
2018-06-25T01:41:56.100Z,276
2018-06-25T01:42:08.524Z,266
2018-06-25T01:42:20.940Z,323
2018-06-25T01:42:33.358Z,288
2018-06-25T01:42:45.925Z,321
2018-06-25T01:42:58.336Z,312
2018-06-25T01:43:10.753Z,270
2018-06-25T01:43:23.166Z,284
2018-06-25T01:43:35.575Z,273
2018-06-25T01:43:47.983Z,289
2018-06-25T01:44:00.405Z,289
2018-06-25T01:44:12.883Z,287
2018-06-25T01:44:25.342Z,288
2018-06-25T01:44:37.928Z,306
2018-06-25T01:44:50.319Z,302
2018-06-25T01:45:02.789Z,298
2018-06-25T01:45:15.238Z,307
2018-06-25T01:45:27.632Z,305
2018-06-25T01:45:40.065Z,311
2018-06-25T01:45:52.716Z,311
2018-06-25T01:46:05.141Z,311
2018-06-25T01:46:17.571Z,301
2018-06-25T01:46:29.994Z,317
2018-06-25T01:46:42.402Z,319
2018-06-25T01:46:54.821Z,303
2018-06-25T01:47:07.236Z,303
2018-06-25T01:47:19.669Z,306
2018-06-25T01:47:32.083Z,308
2018-06-25T01:47:44.610Z,310
2018-06-25T01:47:57.014Z,302
2018-06-25T01:48:09.433Z,317
2018-06-25T01:48:21.859Z,319
2018-06-25T01:48:34.415Z,325
2018-06-25T01:48:46.834Z,316
2018-06-25T01:48:59.246Z,319
2018-06-25T01:49:11.674Z,313
2018-06-25T01:49:24.155Z,311
2018-06-25T01:49:36.556Z,311
2018-06-25T01:49:48.960Z,315
2018-06-25T01:50:01.368Z,313
2018-06-25T01:50:13.800Z,306
2018-06-25T01:50:26.200Z,306
2018-06-25T01:50:38.638Z,306
2018-06-25T01:50:51.182Z,298
2018-06-25T01:51:03.601Z,302
2018-06-25T01:51:16.009Z,313
2018-06-25T01:51:28.435Z,313
2018-06-25T01:51:40.869Z,313
2018-06-25T01:51:53.259Z,313
2018-06-25T01:52:05.684Z,313
2018-06-25T01:52:18.153Z,313
2018-06-25T01:52:30.560Z,313
2018-06-25T01:52:42.980Z,313
2018-06-25T01:52:55.409Z,313
2018-06-25T01:53:07.799Z,313
2018-06-25T01:53:20.215Z,292
2018-06-25T01:53:32.625Z,306
2018-06-25T01:53:45.060Z,309
2018-06-25T01:53:57.467Z,306
2018-06-25T01:54:09.908Z,309
2018-06-25T01:54:22.308Z,309
2018-06-25T01:54:34.719Z,304
2018-06-25T01:54:47.191Z,292
2018-06-25T01:54:59.601Z,288
2018-06-25T01:55:11.994Z,295
2018-06-25T01:55:24.401Z,296
2018-06-25T01:55:36.843Z,296
2018-06-25T01:55:49.231Z,296
2018-06-25T01:56:01.631Z,315
2018-06-25T01:56:14.091Z,311
2018-06-25T01:56:26.496Z,315
2018-06-25T01:56:38.900Z,314
2018-06-25T01:56:51.315Z,310
2018-06-25T01:57:03.738Z,307
2018-06-25T01:57:16.167Z,312
2018-06-25T01:57:28.571Z,309
2018-06-25T01:57:40.971Z,321
2018-06-25T01:57:53.382Z,310
2018-06-25T01:58:05.775Z,310
2018-06-25T01:58:18.236Z,310
2018-06-25T01:58:30.626Z,311
2018-06-25T01:58:43.106Z,318
2018-06-25T01:58:55.503Z,318
2018-06-25T01:59:07.973Z,318
2018-06-25T01:59:20.385Z,318
2018-06-25T01:59:32.792Z,300
2018-06-25T01:59:45.224Z,300
2018-06-25T01:59:57.633Z,300
2018-06-25T02:00:10.117Z,300
2018-06-25T02:00:22.556Z,300
2018-06-25T02:00:34.999Z,300
2018-06-25T02:00:47.432Z,277
2018-06-25T02:01:00.036Z,277
2018-06-25T02:01:12.694Z,277
2018-06-25T02:01:25.116Z,302
2018-06-25T02:01:37.525Z,319
2018-06-25T02:01:49.942Z,308
2018-06-25T02:02:02.381Z,306
2018-06-25T02:02:14.802Z,305
2018-06-25T02:02:27.203Z,307
2018-06-25T02:02:39.643Z,307
2018-06-25T02:02:52.059Z,307
2018-06-25T02:03:04.451Z,301
2018-06-25T02:03:16.859Z,297
2018-06-25T02:03:29.321Z,306
2018-06-25T02:03:41.725Z,304
2018-06-25T02:03:54.146Z,301
2018-06-25T02:04:06.571Z,304
2018-06-25T02:04:18.991Z,298
2018-06-25T02:04:31.411Z,310
2018-06-25T02:04:43.817Z,312
2018-06-25T02:04:56.216Z,310
2018-06-25T02:05:08.629Z,314
2018-06-25T02:05:21.084Z,315
2018-06-25T02:05:33.502Z,318
2018-06-25T02:05:45.929Z,322
2018-06-25T02:05:58.335Z,323
2018-06-25T02:06:10.767Z,325
2018-06-25T02:06:23.261Z,325
2018-06-25T02:06:35.686Z,327
2018-06-25T02:06:48.077Z,327
2018-06-25T02:07:00.490Z,327
2018-06-25T02:07:12.884Z,327
2018-06-25T02:07:25.263Z,327
2018-06-25T02:07:37.677Z,327
2018-06-25T02:07:50.151Z,327
2018-06-25T02:08:02.559Z,327
2018-06-25T02:08:14.971Z,297
2018-06-25T02:08:27.372Z,296
2018-06-25T02:08:39.759Z,296
2018-06-25T02:08:52.175Z,296
2018-06-25T02:09:04.573Z,321
2018-06-25T02:09:16.993Z,321
2018-06-25T02:09:29.376Z,321
2018-06-25T02:09:41.771Z,321
2018-06-25T02:09:54.167Z,321
2018-06-25T02:10:06.560Z,321
2018-06-25T02:10:18.960Z,321
2018-06-25T02:10:31.356Z,321
2018-06-25T02:10:43.803Z,321
2018-06-25T02:10:56.210Z,305
2018-06-25T02:11:08.612Z,306
2018-06-25T02:11:21.031Z,306
2018-06-25T02:11:33.480Z,306
2018-06-25T02:11:45.877Z,307
2018-06-25T02:11:58.265Z,307
2018-06-25T02:12:10.658Z,307
2018-06-25T02:12:23.067Z,308
2018-06-25T02:12:35.474Z,307
2018-06-25T02:12:47.941Z,307
2018-06-25T02:13:00.349Z,307
2018-06-25T02:13:12.768Z,307
2018-06-25T02:13:25.174Z,307
2018-06-25T02:13:37.584Z,307
2018-06-25T02:13:49.986Z,301
2018-06-25T02:14:02.381Z,298
2018-06-25T02:14:14.775Z,298
2018-06-25T02:14:27.174Z,298
2018-06-25T02:14:39.596Z,298
2018-06-25T02:14:52.002Z,298
2018-06-25T02:15:04.418Z,298
2018-06-25T02:15:16.822Z,298
2018-06-25T02:15:29.213Z,300
2018-06-25T02:15:41.622Z,300
2018-06-25T02:15:54.028Z,300
2018-06-25T02:16:06.430Z,300
2018-06-25T02:16:18.850Z,300
2018-06-25T02:16:31.255Z,300
2018-06-25T02:16:43.734Z,300
2018-06-25T02:16:56.127Z,300
2018-06-25T02:17:08.553Z,300
2018-06-25T02:17:20.949Z,300
2018-06-25T02:17:33.351Z,300
2018-06-25T02:17:45.757Z,313
2018-06-25T02:17:58.211Z,323
2018-06-25T02:18:10.628Z,300
2018-06-25T02:18:23.044Z,309
2018-06-25T02:18:35.452Z,309
2018-06-25T02:18:47.902Z,309
2018-06-25T02:19:00.384Z,309
2018-06-25T02:19:12.793Z,309
2018-06-25T02:19:25.188Z,309
2018-06-25T02:19:37.581Z,309
2018-06-25T02:19:49.997Z,309
2018-06-25T02:20:02.453Z,327
2018-06-25T02:20:14.843Z,309
2018-06-25T02:20:27.245Z,301
2018-06-25T02:20:39.765Z,298
2018-06-25T02:20:52.183Z,275
2018-06-25T02:21:04.591Z,272
2018-06-25T02:21:16.994Z,288
2018-06-25T02:21:29.394Z,288
2018-06-25T02:21:41.830Z,288
2018-06-25T02:21:54.241Z,319
2018-06-25T02:22:06.643Z,288
2018-06-25T02:22:19.041Z,290
2018-06-25T02:22:31.434Z,284
2018-06-25T02:22:43.823Z,274
2018-06-25T02:22:56.224Z,286
2018-06-25T02:23:08.619Z,286
2018-06-25T02:23:21.020Z,337
2018-06-25T02:23:33.410Z,336
2018-06-25T02:23:45.805Z,336
2018-06-25T02:23:58.184Z,313
2018-06-25T02:24:10.580Z,323
2018-06-25T02:24:22.977Z,314
2018-06-25T02:24:35.397Z,313
2018-06-25T02:24:47.791Z,313
2018-06-25T02:25:00.200Z,269
2018-06-25T02:25:12.587Z,277
2018-06-25T02:25:24.977Z,312
2018-06-25T02:25:37.406Z,303
2018-06-25T02:25:49.817Z,308
2018-06-25T02:26:02.221Z,304
2018-06-25T02:26:14.639Z,305
2018-06-25T02:26:27.256Z,302
2018-06-25T02:26:39.657Z,306
2018-06-25T02:26:52.221Z,308
2018-06-25T02:27:04.625Z,311
2018-06-25T02:27:17.014Z,314
2018-06-25T02:27:29.407Z,292
2018-06-25T02:27:41.817Z,290
2018-06-25T02:27:54.215Z,290
2018-06-25T02:28:06.617Z,295
2018-06-25T02:28:19.016Z,295
2018-06-25T02:28:31.455Z,295
2018-06-25T02:28:43.844Z,295
2018-06-25T02:28:56.245Z,295
2018-06-25T02:29:08.673Z,295
2018-06-25T02:29:21.078Z,295
2018-06-25T02:29:33.491Z,295
2018-06-25T02:29:45.876Z,295
2018-06-25T02:29:58.276Z,290
2018-06-25T02:30:10.676Z,303
2018-06-25T02:30:23.092Z,306
2018-06-25T02:30:35.514Z,321
2018-06-25T02:30:47.923Z,324
2018-06-25T02:31:00.364Z,324
2018-06-25T02:31:12.781Z,336
2018-06-25T02:31:25.185Z,333
2018-06-25T02:31:37.614Z,333
2018-06-25T02:31:50.159Z,333
2018-06-25T02:32:02.581Z,327
2018-06-25T02:32:14.988Z,325
2018-06-25T02:32:27.407Z,325
2018-06-25T02:32:39.821Z,323
2018-06-25T02:32:52.237Z,323
2018-06-25T02:33:05.665Z,323
2018-06-25T02:33:18.301Z,323
2018-06-25T02:33:30.710Z,323
2018-06-25T02:33:43.128Z,323
2018-06-25T02:33:55.560Z,323
2018-06-25T02:34:07.989Z,323
2018-06-25T02:34:20.428Z,323
2018-06-25T02:34:32.866Z,323
2018-06-25T02:34:45.295Z,323
2018-06-25T02:34:57.699Z,323
2018-06-25T02:35:10.154Z,323
2018-06-25T02:35:22.587Z,323
2018-06-25T02:35:34.996Z,323
2018-06-25T02:35:47.432Z,323
2018-06-25T02:35:59.834Z,323
2018-06-25T02:36:12.360Z,323
2018-06-25T02:36:24.807Z,323
2018-06-25T02:36:37.267Z,323
2018-06-25T02:36:49.762Z,323
2018-06-25T02:37:02.210Z,329
2018-06-25T02:37:14.645Z,329
2018-06-25T02:37:27.040Z,323
2018-06-25T02:37:39.488Z,323
2018-06-25T02:37:51.902Z,323
2018-06-25T02:38:04.308Z,323
2018-06-25T02:38:16.777Z,323
2018-06-25T02:38:29.397Z,323
2018-06-25T02:38:42.750Z,323
2018-06-25T02:38:55.602Z,323
2018-06-25T02:39:08.034Z,323
2018-06-25T02:39:20.491Z,323
2018-06-25T02:39:32.973Z,323
2018-06-25T02:39:45.432Z,323
2018-06-25T02:39:57.863Z,323
2018-06-25T02:40:10.284Z,323
2018-06-25T02:40:22.684Z,323
2018-06-25T02:40:35.157Z,323
2018-06-25T02:40:47.548Z,323
2018-06-25T02:40:59.969Z,323
2018-06-25T02:41:12.393Z,323
2018-06-25T02:41:24.811Z,323
2018-06-25T02:41:37.226Z,323
2018-06-25T02:41:49.657Z,323
2018-06-25T02:42:02.085Z,323
2018-06-25T02:42:14.534Z,313
2018-06-25T02:42:26.964Z,313
2018-06-25T02:42:39.363Z,313
2018-06-25T02:42:51.817Z,313
2018-06-25T02:43:04.245Z,313
2018-06-25T02:43:16.908Z,313
2018-06-25T02:43:29.320Z,313
2018-06-25T02:43:41.759Z,313
2018-06-25T02:43:54.182Z,313
2018-06-25T02:44:06.625Z,313
2018-06-25T02:44:19.072Z,313
2018-06-25T02:44:31.640Z,310
2018-06-25T02:44:44.066Z,293
2018-06-25T02:44:56.488Z,317
2018-06-25T02:45:08.956Z,317
2018-06-25T02:45:21.405Z,316
2018-06-25T02:45:33.834Z,315
2018-06-25T02:45:46.271Z,315
2018-06-25T02:45:58.897Z,315
2018-06-25T02:46:11.370Z,324
2018-06-25T02:46:23.780Z,318
2018-06-25T02:46:36.189Z,312
2018-06-25T02:46:48.619Z,312
2018-06-25T02:47:01.045Z,312
2018-06-25T02:47:13.477Z,315
2018-06-25T02:47:25.946Z,302
2018-06-25T02:47:38.373Z,302
2018-06-25T02:47:50.890Z,315
2018-06-25T02:48:03.308Z,317
2018-06-25T02:48:15.732Z,315
2018-06-25T02:48:28.156Z,315
2018-06-25T02:48:40.658Z,315
2018-06-25T02:48:53.074Z,315
2018-06-25T02:49:05.505Z,311
2018-06-25T02:49:17.942Z,311
2018-06-25T02:49:30.364Z,311
2018-06-25T02:49:42.839Z,311
2018-06-25T02:49:55.260Z,311
2018-06-25T02:50:07.716Z,311
2018-06-25T02:50:20.131Z,311
2018-06-25T02:50:32.569Z,313
2018-06-25T02:50:44.985Z,314
2018-06-25T02:50:57.401Z,304
2018-06-25T02:51:09.871Z,304